createdAt,value
2022-12-11T00:00:57.647Z,101023.47
2022-12-11T00:03:25.827Z,101024.34
2022-12-11T00:05:53.950Z,101023.47
2022-12-11T00:08:22.219Z,101026.97
2022-12-11T00:10:50.947Z,101024.34
2022-12-11T00:13:19.011Z,101020.84
2022-12-11T00:15:48.517Z,101013.84
2022-12-11T00:18:16.627Z,101009.47
2022-12-11T00:20:44.724Z,101012.09
2022-12-11T00:23:13.071Z,101008.63
2022-12-11T00:25:43.913Z,101014.78
2022-12-11T00:28:12.342Z,101008.66
2022-12-11T00:30:42.026Z,101013.91
2022-12-11T00:33:12.629Z,101005.16
2022-12-11T00:35:41.364Z,101009.59
2022-12-11T00:38:09.683Z,101002.59
2022-12-11T00:40:38.438Z,101000.88
2022-12-11T00:43:06.525Z,101000.91
2022-12-11T00:45:37.550Z,100993.88
2022-12-11T00:48:06.488Z,100994.81
2022-12-11T00:50:36.124Z,100991.31
2022-12-11T00:53:05.694Z,100993.06
2022-12-11T00:55:37.631Z,100988.72
2022-12-11T00:58:05.814Z,100983.47
2022-12-11T01:00:33.990Z,100993.97
2022-12-11T01:03:02.521Z,100993.09
2022-12-11T01:05:30.810Z,100993.13
2022-12-11T01:08:00.667Z,100998.41
2022-12-11T01:10:27.868Z,100997.50
2022-12-11T01:12:57.300Z,100988.78
2022-12-11T01:15:27.744Z,100988.78
2022-12-11T01:17:56.442Z,100982.63
2022-12-11T01:20:26.247Z,100990.53
2022-12-11T01:22:54.714Z,100986.16
2022-12-11T01:25:24.324Z,100985.25
2022-12-11T01:27:53.846Z,100988.78
2022-12-11T01:30:24.343Z,100994.94
2022-12-11T01:32:52.539Z,100988.81
2022-12-11T01:35:21.090Z,100993.19
2022-12-11T01:37:49.857Z,100990.56
2022-12-11T01:40:20.916Z,100997.56
2022-12-11T01:42:50.566Z,100992.31
2022-12-11T01:45:36.463Z,101000.22
2022-12-11T01:48:08.040Z,101000.22
2022-12-11T01:50:41.094Z,100997.59
2022-12-11T01:53:11.841Z,100995.81
2022-12-11T01:55:40.846Z,101001.09
2022-12-11T01:58:11.828Z,100991.44
2022-12-11T02:00:40.293Z,100993.19
2022-12-11T02:03:09.174Z,100985.31
2022-12-11T02:05:37.624Z,100985.34
2022-12-11T02:08:07.478Z,100985.31
2022-12-11T02:10:45.191Z,100981.78
2022-12-11T02:13:19.455Z,100986.19
2022-12-11T02:15:52.163Z,100982.69
2022-12-11T02:18:26.727Z,100981.78
2022-12-11T02:20:59.306Z,100981.81
2022-12-11T02:24:01.753Z,100982.69
2022-12-11T02:26:57.385Z,100983.53
2022-12-11T02:29:31.671Z,100986.19
2022-12-11T02:32:03.922Z,100987.94
2022-12-11T02:34:35.210Z,100991.44
2022-12-11T02:37:07.325Z,100989.69
2022-12-11T02:39:36.634Z,100986.16
2022-12-11T02:42:05.517Z,100986.16
2022-12-11T02:44:35.375Z,100988.81
2022-12-11T02:47:04.514Z,100985.25
2022-12-11T02:49:33.734Z,100982.63
2022-12-11T02:52:04.549Z,100987.03
2022-12-11T02:54:37.814Z,100971.22
2022-12-11T02:57:09.690Z,100979.09
2022-12-11T02:59:40.818Z,100979.94
2022-12-11T03:02:09.146Z,100983.47
2022-12-11T03:04:37.748Z,100982.56
2022-12-11T03:07:12.189Z,100986.06
2022-12-11T03:09:40.720Z,100989.56
2022-12-11T03:12:10.394Z,100991.31
2022-12-11T03:14:41.673Z,100987.78
2022-12-11T03:17:15.222Z,100986.00
2022-12-11T03:19:48.707Z,100987.75
2022-12-11T03:22:19.952Z,100990.38
2022-12-11T03:24:52.431Z,100993.88
2022-12-11T03:27:27.802Z,100986.81
2022-12-11T03:29:59.270Z,100989.44
2022-12-11T03:32:30.801Z,100979.81
2022-12-11T03:35:04.489Z,100989.44
2022-12-11T03:37:35.546Z,100973.63
2022-12-11T03:40:08.083Z,100989.38
2022-12-11T03:42:36.909Z,100990.25
2022-12-11T03:45:08.619Z,100982.31
2022-12-11T03:47:37.931Z,100984.06
2022-12-11T03:50:07.282Z,100984.94
2022-12-11T03:52:38.628Z,100991.94
2022-12-11T03:55:11.687Z,100996.28
2022-12-11T03:57:40.613Z,100995.38
2022-12-11T04:00:14.891Z,101001.50
2022-12-11T04:02:43.579Z,100996.25
2022-12-11T04:05:12.714Z,100993.56
2022-12-11T04:07:41.034Z,100995.31
2022-12-11T04:10:09.377Z,100994.41
2022-12-11T04:12:37.452Z,100990.91
2022-12-11T04:15:05.246Z,100987.41
2022-12-11T04:17:54.960Z,100983.84
2022-12-11T04:20:41.210Z,100981.25
2022-12-11T04:23:32.261Z,100981.22
2022-12-11T04:26:05.501Z,100965.47
2022-12-11T04:28:33.735Z,100975.94
2022-12-11T04:31:02.011Z,100971.53
2022-12-11T04:33:31.676Z,100972.41
2022-12-11T04:36:00.301Z,100971.53
2022-12-11T04:38:28.452Z,100973.25
2022-12-11T04:41:00.315Z,100975.84
2022-12-11T04:43:28.653Z,100973.19
2022-12-11T04:46:02.809Z,100978.44
2022-12-11T04:48:32.359Z,100971.44
2022-12-11T04:51:00.796Z,100975.78
2022-12-11T04:53:29.059Z,100978.41
2022-12-11T04:55:57.235Z,100979.28
2022-12-11T04:58:26.342Z,100982.72
2022-12-11T05:00:54.974Z,100980.97
2022-12-11T05:03:24.345Z,100981.81
2022-12-11T05:05:54.866Z,100982.66
2022-12-11T05:08:23.089Z,100981.75
2022-12-11T05:10:57.433Z,100983.47
2022-12-11T05:13:25.993Z,100971.22
2022-12-11T05:15:54.175Z,100977.31
2022-12-11T05:18:22.499Z,100970.28
2022-12-11T05:20:57.842Z,100973.75
2022-12-11T05:23:26.572Z,100971.09
2022-12-11T05:25:55.023Z,100971.94
2022-12-11T05:28:24.916Z,100974.50
2022-12-11T05:30:57.877Z,100974.50
2022-12-11T05:33:26.236Z,100975.34
2022-12-11T05:35:54.361Z,100978.81
2022-12-11T05:38:24.367Z,100975.31
2022-12-11T05:41:02.853Z,100976.19
2022-12-11T05:43:33.366Z,100965.72
2022-12-11T05:46:07.082Z,100957.84
2022-12-11T05:48:35.535Z,100965.72
2022-12-11T05:51:04.639Z,100961.28
2022-12-11T05:53:34.398Z,100972.63
2022-12-11T05:56:11.222Z,100963.03
2022-12-11T05:58:40.019Z,100967.38
2022-12-11T06:01:09.628Z,100963.84
2022-12-11T06:03:37.991Z,100966.47
2022-12-11T06:06:06.918Z,100969.91
2022-12-11T06:08:36.528Z,100973.38
2022-12-11T06:11:05.655Z,100978.63
2022-12-11T06:13:34.168Z,100979.47
2022-12-11T06:16:03.682Z,100984.69
2022-12-11T06:18:32.027Z,100982.06
2022-12-11T06:21:00.124Z,100994.22
2022-12-11T06:23:28.179Z,100988.09
2022-12-11T06:25:57.660Z,100982.81
2022-12-11T06:28:25.730Z,100981.94
2022-12-11T06:30:53.885Z,100977.56
2022-12-11T06:33:21.969Z,100980.16
2022-12-11T06:35:50.090Z,100982.78
2022-12-11T06:38:18.474Z,100986.28
2022-12-11T06:40:47.690Z,100978.41
2022-12-11T06:43:17.173Z,100977.47
2022-12-11T06:45:45.279Z,100983.59
2022-12-11T06:48:13.421Z,100981.81
2022-12-11T06:50:41.542Z,100980.94
2022-12-11T06:53:10.888Z,100976.56
2022-12-11T06:55:38.993Z,100983.53
2022-12-11T06:58:07.096Z,100980.91
2022-12-11T07:00:37.990Z,100980.00
2022-12-11T07:03:06.520Z,100975.63
2022-12-11T07:05:34.697Z,100980.00
2022-12-11T07:08:02.897Z,100995.66
2022-12-11T07:10:31.076Z,101000.91
2022-12-11T07:12:59.501Z,101002.63
2022-12-11T07:15:27.626Z,101000.88
2022-12-11T07:17:57.121Z,100999.13
2022-12-11T07:20:25.195Z,101006.09
2022-12-11T07:22:54.774Z,101000.84
2022-12-11T07:25:22.855Z,101012.19
2022-12-11T07:27:50.920Z,101005.22
2022-12-11T07:30:19.279Z,101007.81
2022-12-11T07:32:47.482Z,100997.34
2022-12-11T07:35:17.055Z,101016.53
2022-12-11T07:37:45.935Z,101013.00
2022-12-11T07:40:14.850Z,101020.00
2022-12-11T07:42:46.257Z,101016.47
2022-12-11T07:45:14.692Z,101021.69
2022-12-11T07:47:42.874Z,101019.06
2022-12-11T07:50:11.258Z,101023.50
2022-12-11T07:52:40.708Z,101020.00
2022-12-11T07:55:09.749Z,101023.53
2022-12-11T07:57:38.071Z,101019.19
2022-12-11T08:00:07.585Z,101021.81
2022-12-11T08:02:37.476Z,101018.34
2022-12-11T08:05:06.766Z,101022.78
2022-12-11T08:07:35.687Z,101018.44
2022-12-11T08:10:05.797Z,101016.72
2022-12-11T08:12:33.914Z,101028.13
2022-12-11T08:15:02.012Z,101022.94
2022-12-11T08:17:33.910Z,101026.47
2022-12-11T08:20:05.459Z,101019.53
2022-12-11T08:22:33.517Z,101017.88
2022-12-11T08:25:01.592Z,101019.66
2022-12-11T08:27:31.108Z,101015.34
2022-12-11T08:29:59.229Z,101020.66
2022-12-11T08:32:27.326Z,101019.88
2022-12-11T08:34:55.515Z,101029.56
2022-12-11T08:37:23.597Z,101020.91
2022-12-11T08:39:52.151Z,101018.34
2022-12-11T08:42:20.275Z,101014.94
2022-12-11T08:44:50.237Z,101018.47
2022-12-11T08:47:18.379Z,101016.81
2022-12-11T08:49:46.504Z,101015.09
2022-12-11T08:52:14.604Z,100995.91
2022-12-11T08:54:43.224Z,101010.81
2022-12-11T08:57:11.316Z,101003.91
2022-12-11T08:59:39.407Z,101007.47
2022-12-11T09:02:12.048Z,101005.72
2022-12-11T09:04:40.287Z,101003.16
2022-12-11T09:07:08.390Z,100994.47
2022-12-11T09:09:36.486Z,100998.88
2022-12-11T09:12:04.900Z,100997.19
2022-12-11T09:14:33.026Z,100993.75
2022-12-11T09:17:01.082Z,100987.66
2022-12-11T09:19:32.410Z,100964.91
2022-12-11T09:22:00.726Z,100971.97
2022-12-11T09:24:28.808Z,100981.66
2022-12-11T09:26:56.928Z,100989.59
2022-12-11T09:29:25.044Z,100998.41
2022-12-11T09:31:53.112Z,100999.28
2022-12-11T09:34:27.490Z,100987.06
2022-12-11T09:36:58.494Z,100993.22
2022-12-11T09:39:26.653Z,100995.81
2022-12-11T09:42:01.362Z,100990.53
2022-12-11T09:44:35.605Z,100982.59
2022-12-11T09:47:03.818Z,100985.19
2022-12-11T09:49:36.539Z,100979.78
2022-12-11T09:52:13.724Z,100983.22
2022-12-11T09:54:46.289Z,100983.09
2022-12-11T09:57:23.481Z,100983.00
2022-12-11T10:00:05.696Z,100981.16
2022-12-11T10:02:44.107Z,100974.91
2022-12-11T10:05:18.895Z,100971.28
2022-12-11T10:07:52.916Z,100958.00
2022-12-11T10:10:27.503Z,100960.59
2022-12-11T10:13:02.033Z,100950.84
2022-12-11T10:15:37.603Z,100944.63
2022-12-11T10:18:09.831Z,100946.31
2022-12-11T10:20:40.481Z,100951.47
2022-12-11T10:23:23.397Z,100949.56
2022-12-11T10:25:59.909Z,100947.72
2022-12-11T10:28:29.114Z,100941.47
2022-12-11T10:31:04.717Z,100940.50
2022-12-11T10:33:37.166Z,100943.97
2022-12-11T10:36:08.771Z,100933.28
2022-12-11T10:38:41.676Z,100932.31
2022-12-11T10:41:13.385Z,100930.63
2022-12-11T10:43:44.360Z,100933.28
2022-12-11T10:46:17.659Z,100926.16
2022-12-11T10:48:50.779Z,100935.03
2022-12-11T10:51:18.906Z,100928.84
2022-12-11T10:53:53.105Z,100923.53
2022-12-11T10:56:27.589Z,100928.72
2022-12-11T10:58:55.958Z,100930.41
2022-12-11T11:01:25.671Z,100925.97
2022-12-11T11:03:57.962Z,100931.19
2022-12-11T11:06:26.841Z,100915.22
2022-12-11T11:08:57.855Z,100915.22
2022-12-11T11:11:28.984Z,100917.81
2022-12-11T11:14:14.742Z,100922.25
2022-12-11T11:16:45.524Z,100913.47
2022-12-11T11:19:21.432Z,100914.53
2022-12-11T11:21:52.085Z,100917.34
2022-12-11T11:24:28.588Z,100905.16
2022-12-11T11:27:13.070Z,100906.97
2022-12-11T11:29:42.391Z,100895.59
2022-12-11T11:32:18.689Z,100888.63
2022-12-11T11:34:46.858Z,100888.66
2022-12-11T11:37:25.279Z,100887.84
2022-12-11T11:39:58.954Z,100886.09
2022-12-11T11:42:33.452Z,100885.22
2022-12-11T11:45:04.506Z,100880.84
2022-12-11T11:47:37.854Z,100878.13
2022-12-11T11:50:11.653Z,100871.06
2022-12-11T11:52:44.285Z,100874.59
2022-12-11T11:55:22.371Z,100875.47
2022-12-11T11:57:56.565Z,100878.06
2022-12-11T12:00:31.872Z,100870.94
2022-12-11T12:03:03.709Z,100867.25
2022-12-11T12:05:39.423Z,100868.78
2022-12-11T12:08:12.448Z,100871.16
2022-12-11T12:10:48.826Z,100870.88
2022-12-11T12:13:48.705Z,100873.19
2022-12-11T12:16:51.065Z,100864.81
2022-12-11T12:19:15.931Z,100869.56
2022-12-11T12:21:48.280Z,100870.00
2022-12-11T12:24:24.985Z,100858.06
2022-12-11T12:27:00.864Z,100861.31
2022-12-11T12:29:41.530Z,100865.47
2022-12-11T12:32:14.118Z,100860.16
2022-12-11T12:34:55.279Z,100868.34
2022-12-11T12:37:35.332Z,100869.34
2022-12-11T12:40:13.123Z,100864.94
2022-12-11T12:42:50.962Z,100864.91
2022-12-11T12:45:27.305Z,100871.13
2022-12-11T12:47:55.411Z,100875.56
2022-12-11T12:50:25.580Z,100866.75
2022-12-11T12:52:54.049Z,100871.19
2022-12-11T12:55:24.239Z,100874.56
2022-12-11T12:57:55.674Z,100877.78
2022-12-11T13:00:33.213Z,100869.69
2022-12-11T13:03:03.903Z,100871.44
2022-12-11T13:05:35.171Z,100872.25
2022-12-11T13:08:06.064Z,100873.00
2022-12-11T13:10:35.744Z,100867.63
2022-12-11T13:13:06.635Z,100870.25
2022-12-11T13:15:39.028Z,100866.94
2022-12-11T13:18:32.514Z,100862.22
2022-12-11T13:21:00.696Z,100867.06
2022-12-11T13:23:31.273Z,100863.88
2022-12-11T13:26:00.970Z,100865.16
2022-12-11T13:28:46.709Z,100860.19
2022-12-11T13:31:40.632Z,100865.84
2022-12-11T13:34:16.128Z,100871.38
2022-12-11T13:36:48.814Z,100876.03
2022-12-11T13:39:21.318Z,100873.66
2022-12-11T13:41:53.305Z,100877.38
2022-12-11T13:44:27.004Z,100885.47
2022-12-11T13:46:56.508Z,100881.22
2022-12-11T13:49:26.585Z,100883.91
2022-12-11T13:51:59.696Z,100894.59
2022-12-11T13:54:28.506Z,100891.97
2022-12-11T13:57:02.296Z,100890.25
2022-12-11T13:59:34.511Z,100904.38
2022-12-11T14:02:07.124Z,100909.72
2022-12-11T14:04:35.496Z,100912.38
2022-12-11T14:07:07.804Z,100912.38
2022-12-11T14:09:38.678Z,100906.19
2022-12-11T14:12:07.334Z,100907.06
2022-12-11T14:14:43.848Z,100904.44
2022-12-11T14:17:15.033Z,100907.06
2022-12-11T14:19:48.135Z,100904.44
2022-12-11T14:22:20.877Z,100904.44
2022-12-11T14:24:53.009Z,100899.16
2022-12-11T14:27:21.712Z,100900.94
2022-12-11T14:29:51.562Z,100893.88
2022-12-11T14:32:26.015Z,100895.66
2022-12-11T14:34:54.746Z,100901.84
2022-12-11T14:37:24.934Z,100900.09
2022-12-11T14:39:58.791Z,100905.41
2022-12-11T14:42:30.990Z,100896.59
2022-12-11T14:45:04.714Z,100899.28
2022-12-11T14:47:39.795Z,100895.78
2022-12-11T14:50:10.442Z,100894.06
2022-12-11T14:52:41.032Z,100892.38
2022-12-11T14:55:14.016Z,100895.94
2022-12-11T14:57:45.148Z,100888.09
2022-12-11T15:00:25.702Z,100890.81
2022-12-11T15:03:02.063Z,100893.56
2022-12-11T15:05:33.341Z,100900.69
2022-12-11T15:08:24.408Z,100891.97
2022-12-11T15:11:11.739Z,100901.78
2022-12-11T15:13:49.764Z,100898.34
2022-12-11T15:16:19.595Z,100901.06
2022-12-11T15:18:49.872Z,100902.88
2022-12-11T15:21:18.435Z,100905.63
2022-12-11T15:23:53.322Z,100903.88
2022-12-11T15:26:22.240Z,100905.69
2022-12-11T15:29:00.995Z,100904.91
2022-12-11T15:31:32.707Z,100910.22
2022-12-11T15:34:00.891Z,100903.25
2022-12-11T15:36:33.806Z,100906.81
2022-12-11T15:39:02.584Z,100906.84
2022-12-11T15:41:33.315Z,100906.03
2022-12-11T15:44:03.030Z,100899.91
2022-12-11T15:46:36.738Z,100921.03
2022-12-11T15:49:12.522Z,100915.78
2022-12-11T15:51:43.170Z,100911.41
2022-12-11T15:54:11.703Z,100907.91
2022-12-11T15:56:40.179Z,100914.97
2022-12-11T15:59:08.298Z,100905.31
2022-12-11T16:01:37.803Z,100907.97
2022-12-11T16:04:06.069Z,100900.09
2022-12-11T16:06:34.429Z,100915.00
2022-12-11T16:09:04.039Z,100906.25
2022-12-11T16:11:32.176Z,100905.38
2022-12-11T16:14:03.433Z,100901.00
2022-12-11T16:16:31.539Z,100915.03
2022-12-11T16:19:01.212Z,100911.53
2022-12-11T16:21:29.371Z,100912.44
2022-12-11T16:23:57.494Z,100903.66
2022-12-11T16:26:25.563Z,100906.31
2022-12-11T16:28:53.678Z,100903.66
2022-12-11T16:31:22.195Z,100902.81
2022-12-11T16:33:50.406Z,100897.53
2022-12-11T16:36:20.689Z,100904.59
2022-12-11T16:38:53.613Z,100902.81
2022-12-11T16:41:22.835Z,100904.56
2022-12-11T16:43:51.033Z,100904.56
2022-12-11T16:46:19.593Z,100902.84
2022-12-11T16:48:47.762Z,100906.34
2022-12-11T16:51:16.008Z,100902.81
2022-12-11T16:53:46.110Z,100901.97
2022-12-11T16:56:14.211Z,100901.97
2022-12-11T16:58:42.327Z,100913.34
2022-12-11T17:01:12.173Z,100909.84
2022-12-11T17:03:40.614Z,100916.00
2022-12-11T17:06:10.117Z,100919.50
2022-12-11T17:08:38.282Z,100924.75
2022-12-11T17:11:08.400Z,100938.81
2022-12-11T17:13:36.728Z,100932.66
2022-12-11T17:16:06.365Z,100930.00
2022-12-11T17:18:34.801Z,100937.88
2022-12-11T17:21:07.011Z,100932.59
2022-12-11T17:23:35.128Z,100940.47
2022-12-11T17:26:03.803Z,100937.84
2022-12-11T17:28:33.336Z,100935.16
2022-12-11T17:31:01.492Z,100929.91
2022-12-11T17:33:29.592Z,100934.25
2022-12-11T17:36:00.498Z,100937.78
2022-12-11T17:38:28.667Z,100933.34
2022-12-11T17:40:56.779Z,100932.47
2022-12-11T17:43:24.931Z,100926.31
2022-12-11T17:45:55.151Z,100935.09
2022-12-11T17:48:23.368Z,100932.47
2022-12-11T17:50:52.868Z,100937.72
2022-12-11T17:53:22.040Z,100934.22
2022-12-11T17:55:51.695Z,100926.31
2022-12-11T17:58:21.741Z,100927.19
2022-12-11T18:00:51.493Z,100924.53
2022-12-11T18:03:21.150Z,100921.91
2022-12-11T18:05:50.978Z,100924.53
2022-12-11T18:08:23.337Z,100919.25
2022-12-11T18:10:51.423Z,100924.53
2022-12-11T18:13:19.979Z,100921.91
2022-12-11T18:15:48.656Z,100925.44
2022-12-11T18:18:16.834Z,100928.09
2022-12-11T18:20:49.855Z,100928.13
2022-12-11T18:23:17.951Z,100921.13
2022-12-11T18:25:46.028Z,100925.50
2022-12-11T18:28:14.325Z,100924.63
2022-12-11T18:30:42.399Z,100918.50
2022-12-11T18:33:10.472Z,100921.13
2022-12-11T18:35:38.495Z,100919.41
2022-12-11T18:38:08.033Z,100920.31
2022-12-11T18:40:36.155Z,100924.69
2022-12-11T18:43:04.287Z,100929.97
2022-12-11T18:45:33.070Z,100925.56
2022-12-11T18:48:01.155Z,100932.63
2022-12-11T18:50:29.209Z,100929.13
2022-12-11T18:52:57.275Z,100924.75
2022-12-11T18:55:26.849Z,100919.50
2022-12-11T18:57:54.896Z,100916.88
2022-12-11T19:00:23.189Z,100927.41
2022-12-11T19:02:52.279Z,100925.66
2022-12-11T19:05:20.473Z,100924.75
2022-12-11T19:07:48.580Z,100926.53
2022-12-11T19:10:16.734Z,100924.75
2022-12-11T19:12:46.198Z,100927.41
2022-12-11T19:15:17.375Z,100928.28
2022-12-11T19:17:47.699Z,100931.78
2022-12-11T19:20:47.623Z,100929.16
2022-12-11T19:23:03.857Z,100943.16
2022-12-11T19:25:31.953Z,100946.66
2022-12-11T19:28:01.826Z,100948.41
2022-12-11T19:30:29.877Z,100944.91
2022-12-11T19:32:58.374Z,100948.41
2022-12-11T19:35:26.452Z,100944.03
2022-12-11T19:37:54.535Z,100951.06
2022-12-11T19:40:26.186Z,100954.56
2022-12-11T19:42:54.241Z,100950.22
2022-12-11T19:45:23.777Z,100951.97
2022-12-11T19:47:51.909Z,100947.56
2022-12-11T19:50:20.050Z,100950.22
2022-12-11T19:52:48.126Z,100946.72
2022-12-11T19:55:16.166Z,100946.72
2022-12-11T19:57:44.465Z,100951.09
2022-12-11T20:00:13.292Z,100949.31
2022-12-11T20:02:42.725Z,100956.34
2022-12-11T20:05:11.696Z,100950.19
2022-12-11T20:07:40.164Z,100951.09
2022-12-11T20:10:09.071Z,100940.53
2022-12-11T20:12:37.143Z,100937.91
2022-12-11T20:15:08.667Z,100945.78
2022-12-11T20:17:39.734Z,100939.63
2022-12-11T20:20:10.781Z,100932.59
2022-12-11T20:22:38.974Z,100938.75
2022-12-11T20:25:07.853Z,100933.47
2022-12-11T20:27:35.925Z,100930.84
2022-12-11T20:30:04.511Z,100929.06
2022-12-11T20:32:33.302Z,100922.03
2022-12-11T20:35:01.420Z,100935.22
2022-12-11T20:37:31.116Z,100936.09
2022-12-11T20:39:59.345Z,100933.47
2022-12-11T20:42:27.580Z,100928.19
2022-12-11T20:44:55.695Z,100932.56
2022-12-11T20:47:23.801Z,100928.19
2022-12-11T20:49:52.530Z,100937.84
2022-12-11T20:52:20.862Z,100940.47
2022-12-11T20:54:50.346Z,100936.94
2022-12-11T20:57:18.653Z,100930.78
2022-12-11T20:59:46.750Z,100934.31
2022-12-11T21:02:14.896Z,100927.28
2022-12-11T21:04:43.424Z,100932.53
2022-12-11T21:07:11.895Z,100934.28
2022-12-11T21:09:40.497Z,100935.13
2022-12-11T21:12:10.387Z,100937.78
2022-12-11T21:14:38.882Z,100936.03
2022-12-11T21:17:07.025Z,100929.84
2022-12-11T21:19:35.109Z,100932.50
2022-12-11T21:22:03.717Z,100931.59
2022-12-11T21:24:32.386Z,100932.47
2022-12-11T21:27:00.654Z,100935.06
2022-12-11T21:29:30.407Z,100939.50
2022-12-11T21:31:58.960Z,100930.69
2022-12-11T21:34:27.841Z,100941.22
2022-12-11T21:36:57.086Z,100934.19
2022-12-11T21:39:25.613Z,100935.91
2022-12-11T21:41:53.730Z,100935.91
2022-12-11T21:47:11.450Z,100940.28
2022-12-11T21:49:39.683Z,100930.59
2022-12-11T21:52:08.405Z,100934.97
2022-12-11T21:54:36.746Z,100938.47
2022-12-11T21:57:05.130Z,100946.38
2022-12-11T21:59:33.285Z,100939.31
2022-12-11T22:02:01.350Z,100934.06
2022-12-11T22:04:30.841Z,100940.19
2022-12-11T22:06:59.016Z,100941.06
2022-12-11T22:09:27.397Z,100940.16
2022-12-11T22:11:58.620Z,100939.31
2022-12-11T22:14:27.017Z,100937.50
2022-12-11T22:16:55.288Z,100941.94
2022-12-11T22:19:25.614Z,100942.78
2022-12-11T22:21:59.935Z,100946.25
2022-12-11T22:24:27.972Z,100940.97
2022-12-11T22:26:56.037Z,100948.00
2022-12-11T22:29:24.112Z,100951.50
2022-12-11T22:31:52.845Z,100942.66
2022-12-11T22:34:20.949Z,100941.75
2022-12-11T22:36:49.006Z,100939.13
2022-12-11T22:39:18.455Z,100945.28
2022-12-11T22:41:46.531Z,100939.13
2022-12-11T22:44:16.728Z,100948.78
2022-12-11T22:46:49.620Z,100950.53
2022-12-11T22:49:18.755Z,100947.88
2022-12-11T22:51:46.876Z,100946.09
2022-12-11T22:54:14.969Z,100944.31
2022-12-11T22:56:44.432Z,100936.41
2022-12-11T22:59:12.594Z,100946.09
2022-12-11T23:01:40.672Z,100944.38
2022-12-11T23:04:08.732Z,100940.00
2022-12-11T23:06:36.907Z,100950.56
2022-12-11T23:09:05.151Z,100954.13
2022-12-11T23:11:36.261Z,100952.38
2022-12-11T23:14:06.608Z,100949.78
2022-12-11T23:16:34.747Z,100942.78
2022-12-11T23:19:02.980Z,100954.25
2022-12-11T23:21:31.205Z,100963.94
2022-12-11T23:23:59.830Z,100958.69
2022-12-11T23:26:28.469Z,100952.59
2022-12-11T23:28:57.397Z,100956.13
2022-12-11T23:31:27.484Z,100957.91
2022-12-11T23:33:55.645Z,100954.44
2022-12-11T23:36:23.866Z,100951.81
2022-12-11T23:38:54.832Z,100953.59
2022-12-11T23:41:23.891Z,100949.22
2022-12-11T23:43:51.929Z,100949.25
2022-12-11T23:46:23.484Z,100951.91
2022-12-11T23:48:53.692Z,100951.06
2022-12-11T23:51:22.995Z,100953.69
2022-12-11T23:53:51.433Z,100950.22
2022-12-11T23:56:21.259Z,100945.81
2022-12-11T23:58:49.916Z,100950.19
